Time;durP1;ratioP1;P1;durP2;ratioP2;P2;SDS_P1;SDS_P2;PMS_P1;PMS_P2;Temp;Humidity;BMP_temperature;BMP_pressure;BME280_temperature;BME280_humidity;BME280_pressure;Samples;Min_cycle;Max_cycle;Signal;HPM_P1;HPM_P2
2023/01/04 00:01:15;;;;;;;4.85;2.67;;;21.20;64.40;;;;;;4983270;28;92814;-88
2023/01/04 00:03:41;;;;;;;5.63;2.72;;;21.20;64.50;;;;;;4983764;28;93174;-87
2023/01/04 00:06:10;;;;;;;4.95;2.45;;;21.10;64.60;;;;;;4983548;28;92279;-88
2023/01/04 00:08:36;;;;;;;5.77;2.83;;;21.20;64.50;;;;;;4983767;28;92636;-87
2023/01/04 00:11:02;;;;;;;5.95;2.50;;;21.10;64.40;;;;;;4982638;28;92645;-88
2023/01/04 00:13:29;;;;;;;5.25;2.85;;;21.10;64.60;;;;;;4982116;28;93952;-88
2023/01/04 00:15:55;;;;;;;5.28;2.70;;;21.10;64.70;;;;;;4983022;28;95724;-87
2023/01/04 00:18:21;;;;;;;5.78;2.85;;;21.10;64.70;;;;;;4981487;28;94367;-88
2023/01/04 00:20:47;;;;;;;4.75;2.55;;;21.10;64.40;;;;;;4990426;28;92164;-88
2023/01/04 00:23:12;;;;;;;4.70;2.50;;;21.10;64.40;;;;;;4983988;28;93525;-87
2023/01/04 00:25:41;;;;;;;5.95;2.83;;;21.10;64.50;;;;;;4982323;28;92979;-87
2023/01/04 00:28:09;;;;;;;4.10;2.53;;;21.10;64.50;;;;;;4983131;28;92730;-87
2023/01/04 00:30:35;;;;;;;6.32;2.65;;;21.10;64.40;;;;;;4982750;28;92533;-87
2023/01/04 00:33:00;;;;;;;4.32;2.40;;;21.10;64.50;;;;;;4983063;28;93144;-87
2023/01/04 00:35:26;;;;;;;5.63;2.67;;;21.00;64.40;;;;;;4982653;28;92770;-86
2023/01/04 00:37:51;;;;;;;4.75;2.50;;;21.00;64.80;;;;;;4982913;28;93424;-87
2023/01/04 00:40:17;;;;;;;6.82;2.67;;;21.00;64.30;;;;;;4983058;28;93049;-88
2023/01/04 00:42:43;;;;;;;4.95;2.67;;;21.00;64.40;;;;;;4982777;28;93767;-88
2023/01/04 00:45:09;;;;;;;5.32;2.45;;;21.00;64.40;;;;;;4982007;28;93507;-89
2023/01/04 00:47:34;;;;;;;5.22;2.53;;;21.00;65.30;;;;;;4982411;28;92017;-89
2023/01/04 00:50:01;;;;;;;4.72;2.67;;;21.00;64.40;;;;;;4983965;28;92631;-87
2023/01/04 00:52:26;;;;;;;4.93;2.58;;;21.00;64.30;;;;;;4982900;28;93510;-88
2023/01/04 00:54:52;;;;;;;3.63;2.17;;;20.90;64.40;;;;;;4983719;28;92807;-87
2023/01/04 00:57:17;;;;;;;4.25;2.40;;;21.00;64.40;;;;;;4982379;28;92110;-89
2023/01/04 00:59:43;;;;;;;4.55;2.35;;;20.90;64.40;;;;;;4982680;28;92214;-88
2023/01/04 01:02:09;;;;;;;7.00;2.90;;;20.90;64.50;;;;;;4982974;28;94353;-89
2023/01/04 01:04:35;;;;;;;4.22;2.22;;;20.90;64.40;;;;;;4982478;28;93215;-89
2023/01/04 01:07:01;;;;;;;4.10;2.38;;;20.90;64.60;;;;;;4982763;28;92576;-87
2023/01/04 01:09:26;;;;;;;4.90;2.45;;;20.90;64.60;;;;;;4982574;28;92690;-89
2023/01/04 01:11:53;;;;;;;3.92;2.28;;;20.90;64.40;;;;;;4982619;28;93547;-88
2023/01/04 01:14:21;;;;;;;4.45;2.33;;;20.90;64.30;;;;;;4983093;28;92594;-87
2023/01/04 01:16:47;;;;;;;3.60;2.28;;;20.90;64.50;;;;;;4982384;28;92391;-88
2023/01/04 01:19:13;;;;;;;5.32;2.15;;;20.90;64.30;;;;;;4982231;28;91773;-88
2023/01/04 01:21:39;;;;;;;3.17;1.95;;;20.90;64.40;;;;;;4982204;28;93081;-87
2023/01/04 01:24:05;;;;;;;3.38;2.20;;;20.80;65.20;;;;;;4981577;28;92825;-87
2023/01/04 01:26:31;;;;;;;3.53;2.13;;;20.80;64.30;;;;;;4981688;28;93213;-88
2023/01/04 01:28:57;;;;;;;4.85;2.42;;;20.80;64.40;;;;;;4983028;28;92389;-88
2023/01/04 01:31:26;;;;;;;6.88;2.45;;;20.80;64.40;;;;;;4982014;28;94492;-86
2023/01/04 01:33:54;;;;;;;4.20;2.03;;;20.80;64.50;;;;;;4982726;28;92867;-86
2023/01/04 01:36:21;;;;;;;3.08;1.90;;;20.80;64.60;;;;;;4982391;28;92725;-85
2023/01/04 01:38:47;;;;;;;4.80;2.25;;;20.80;64.70;;;;;;4981307;28;92194;-84
2023/01/04 01:41:28;;;;;;;4.38;2.30;;;20.80;64.80;;;;;;4982320;28;93633;-85
2023/01/04 01:43:57;;;;;;;4.22;1.92;;;20.80;64.80;;;;;;4981815;28;100897;-85
2023/01/04 01:46:28;;;;;;;3.88;2.20;;;20.80;64.70;;;;;;4982086;28;92311;-85
2023/01/04 01:48:59;;;;;;;4.13;2.13;;;20.80;64.70;;;;;;4981392;28;92811;-85
2023/01/04 01:51:26;;;;;;;5.78;2.38;;;20.80;64.80;;;;;;4984761;28;94835;-83
2023/01/04 01:54:00;;;;;;;3.45;2.22;;;20.80;64.60;;;;;;4984171;28;95391;-85
2023/01/04 01:56:28;;;;;;;3.38;1.90;;;20.70;64.60;;;;;;4985180;28;92571;-85
2023/01/04 01:58:57;;;;;;;4.50;2.15;;;20.70;64.70;;;;;;4985558;28;92194;-85
2023/01/04 02:01:23;;;;;;;4.38;2.08;;;20.80;64.80;;;;;;4984737;28;92567;-85
2023/01/04 02:03:48;;;;;;;4.78;2.10;;;20.70;64.90;;;;;;4984741;28;92261;-86
2023/01/04 02:06:23;;;;;;;3.83;2.00;;;20.70;64.80;;;;;;4985328;28;92543;-83
2023/01/04 02:08:49;;;;;;;4.13;2.13;;;20.70;65.00;;;;;;4984220;28;92148;-85
2023/01/04 02:11:15;;;;;;;2.88;2.08;;;20.70;65.10;;;;;;4985062;28;93147;-84
2023/01/04 02:16:45;;;;;;;4.13;2.00;;;20.70;64.90;;;;;;4984079;28;93235;-84
2023/01/04 02:19:33;;;;;;;3.63;2.33;;;20.60;64.80;;;;;;4984330;28;92677;-84
2023/01/04 02:22:31;;;;;;;3.38;2.00;;;20.70;64.80;;;;;;4984133;28;93700;-84
2023/01/04 02:25:27;;;;;;;2.78;1.95;;;20.70;64.90;;;;;;4983502;28;93301;-84
2023/01/04 02:28:15;;;;;;;4.57;2.10;;;20.70;65.00;;;;;;4985209;28;92833;-84
2023/01/04 02:30:44;;;;;;;3.40;1.83;;;20.60;65.60;;;;;;4984875;28;93232;-85
2023/01/04 02:33:15;;;;;;;2.83;1.83;;;20.60;64.90;;;;;;4984677;28;94847;-84
2023/01/04 02:35:56;;;;;;;4.10;1.70;;;20.60;64.90;;;;;;4984509;28;93627;-85
2023/01/04 02:38:33;;;;;;;3.15;1.80;;;20.60;65.00;;;;;;4985308;28;92744;-83
2023/01/04 02:41:07;;;;;;;3.60;2.03;;;20.50;65.20;;;;;;4984683;28;92698;-84
2023/01/04 02:46:42;;;;;;;3.03;1.45;;;20.50;65.10;;;;;;4984746;28;93393;-85
2023/01/04 02:51:52;;;;;;;3.15;1.75;;;20.50;65.30;;;;;;4984382;28;92060;-85
2023/01/04 02:54:23;;;;;;;2.42;1.52;;;20.50;65.30;;;;;;4983223;28;93159;-83
2023/01/04 02:56:59;;;;;;;3.25;1.80;;;20.50;65.00;;;;;;4984164;28;93126;-85
2023/01/04 02:59:45;;;;;;;2.40;1.70;;;20.50;64.90;;;;;;4984909;28;92301;-84
2023/01/04 03:08:35;;;;;;;3.80;2.10;;;20.40;65.40;;;;;;4863467;28;96377;-85
2023/01/04 03:12:30;;;;;;;2.28;1.33;;;20.40;65.20;;;;;;4874417;28;93407;-84
2023/01/04 03:14:04;;;;;;;2.70;1.67;;;20.40;65.30;;;;;;4874196;28;92732;-85
2023/01/04 03:16:31;;;;;;;2.78;1.75;;;20.40;65.40;;;;;;4871773;28;92678;-84
2023/01/04 03:19:03;;;;;;;2.97;1.67;;;20.40;65.30;;;;;;4871337;28;93045;-86
2023/01/04 03:21:30;;;;;;;2.88;1.98;;;20.40;65.20;;;;;;4872380;28;92847;-84
2023/01/04 03:35:50;;;;;;;3.17;2.05;;;20.30;65.40;;;;;;4870547;28;92531;-83
2023/01/04 03:50:30;;;;;;;2.83;1.40;;;20.30;65.50;;;;;;5003168;28;96824;-82
2023/01/04 03:52:58;;;;;;;3.40;1.80;;;20.30;65.60;;;;;;4940840;28;97161;-81
2023/01/04 03:55:26;;;;;;;2.40;1.75;;;20.30;65.40;;;;;;4940732;28;92243;-83
2023/01/04 03:57:52;;;;;;;2.65;1.73;;;20.20;65.50;;;;;;4952629;28;91648;-84
2023/01/04 04:00:18;;;;;;;3.40;1.40;;;20.20;65.40;;;;;;4960068;28;93740;-82
2023/01/04 04:02:49;;;;;;;3.40;1.70;;;20.20;65.40;;;;;;4959814;28;93397;-84
2023/01/04 04:10:50;;;;;;;2.90;1.55;;;20.20;65.60;;;;;;4960154;28;97263;-82
2023/01/04 04:13:16;;;;;;;3.35;1.80;;;20.20;65.60;;;;;;4958789;28;93246;-84
2023/01/04 04:15:41;;;;;;;2.92;1.70;;;20.20;65.50;;;;;;4944187;28;92473;-82
2023/01/04 04:18:07;;;;;;;2.05;1.60;;;20.20;65.60;;;;;;4950660;28;92443;-83
2023/01/04 04:20:33;;;;;;;2.15;1.42;;;20.20;65.80;;;;;;4960051;28;93134;-83
2023/01/04 04:22:59;;;;;;;2.85;2.00;;;20.20;65.70;;;;;;4960878;28;93262;-82
2023/01/04 04:25:25;;;;;;;2.70;1.70;;;20.10;65.70;;;;;;4960400;28;92580;-83
2023/01/04 04:27:50;;;;;;;3.50;1.73;;;20.10;65.80;;;;;;4960532;28;92702;-83
2023/01/04 04:30:16;;;;;;;3.03;1.73;;;20.10;65.70;;;;;;4987727;27;94505;-82
2023/01/04 04:32:45;;;;;;;2.60;1.60;;;20.10;65.80;;;;;;5002860;27;94076;-83
2023/01/04 04:35:10;;;;;;;2.20;1.48;;;20.10;66.00;;;;;;5003285;28;92445;-84
2023/01/04 04:37:36;;;;;;;3.47;1.85;;;20.10;65.70;;;;;;5002714;27;92490;-84
2023/01/04 04:40:03;;;;;;;2.13;1.40;;;20.10;65.90;;;;;;5002853;27;92843;-82
2023/01/04 04:42:29;;;;;;;2.17;1.40;;;20.10;65.90;;;;;;5001833;27;92908;-83
2023/01/04 04:44:54;;;;;;;2.58;1.77;;;20.10;65.70;;;;;;5003039;27;92689;-82
2023/01/04 04:47:20;;;;;;;2.55;1.30;;;20.10;65.90;;;;;;5003457;28;92627;-82
2023/01/04 04:49:45;;;;;;;3.05;1.73;;;20.10;65.90;;;;;;5001997;27;93442;-83
2023/01/04 04:52:11;;;;;;;3.03;1.60;;;20.00;66.00;;;;;;5002414;27;93765;-83
2023/01/04 04:54:37;;;;;;;2.17;1.70;;;20.00;66.10;;;;;;5002082;27;93774;-83
2023/01/04 04:57:02;;;;;;;2.45;1.20;;;20.00;65.80;;;;;;5001948;27;92297;-84
2023/01/04 04:59:28;;;;;;;2.88;1.70;;;20.00;65.90;;;;;;5002816;27;93050;-84
2023/01/04 05:01:53;;;;;;;3.15;1.65;;;20.00;65.80;;;;;;5003153;28;92730;-83
2023/01/04 05:04:19;;;;;;;2.15;1.30;;;20.00;65.90;;;;;;5002822;27;93086;-84
2023/01/04 05:06:46;;;;;;;1.90;1.40;;;20.00;66.20;;;;;;5001933;27;92573;-84
2023/01/04 05:09:13;;;;;;;2.92;1.55;;;20.00;66.00;;;;;;5002108;27;93726;-82
2023/01/04 05:14:23;;;;;;;1.63;1.33;;;20.00;65.90;;;;;;5003927;28;93014;-85
2023/01/04 05:16:48;;;;;;;3.08;1.52;;;20.00;66.00;;;;;;5000771;28;92342;-84
2023/01/04 05:19:14;;;;;;;2.30;1.42;;;20.00;66.10;;;;;;5002076;27;93699;-83
2023/01/04 05:21:40;;;;;;;3.03;1.77;;;20.00;65.90;;;;;;5002290;27;92620;-82
2023/01/04 05:24:06;;;;;;;2.55;1.42;;;20.00;66.00;;;;;;5002424;27;92590;-84
2023/01/04 05:26:32;;;;;;;2.95;1.52;;;19.90;66.10;;;;;;5004905;27;92479;-83
2023/01/04 05:28:58;;;;;;;2.35;1.50;;;19.90;65.90;;;;;;5006036;28;93544;-83
2023/01/04 05:31:24;;;;;;;2.63;1.73;;;19.90;66.10;;;;;;5005504;27;92965;-83
2023/01/04 05:33:50;;;;;;;2.13;1.40;;;19.90;66.00;;;;;;5005408;27;92723;-83
2023/01/04 05:36:16;;;;;;;2.10;1.35;;;19.90;65.70;;;;;;5005591;27;91538;-84
2023/01/04 05:38:41;;;;;;;2.78;1.33;;;19.90;65.80;;;;;;5004729;27;93001;-84
2023/01/04 05:42:24;;;;;;;3.05;1.42;;;19.90;65.70;;;;;;5006919;28;92659;-82
2023/01/04 05:43:52;;;;;;;2.35;1.20;;;19.90;65.90;;;;;;5005250;28;93210;-86
2023/01/04 05:46:18;;;;;;;1.98;1.35;;;19.90;65.90;;;;;;5005314;27;92240;-83
2023/01/04 05:48:44;;;;;;;3.30;1.48;;;19.90;66.00;;;;;;5004861;27;92668;-85
2023/01/04 05:51:09;;;;;;;2.15;1.55;;;19.90;66.10;;;;;;5003894;27;92967;-85
2023/01/04 05:53:35;;;;;;;1.67;1.25;;;19.90;65.90;;;;;;5004973;27;93097;-82
2023/01/04 05:56:00;;;;;;;2.03;1.27;;;19.90;66.00;;;;;;5004547;28;92125;-83
2023/01/04 05:58:26;;;;;;;2.15;1.30;;;19.80;66.10;;;;;;5004058;27;92688;-83
2023/01/04 06:00:52;;;;;;;2.03;1.30;;;19.90;65.90;;;;;;5003651;27;93304;-83
2023/01/04 06:03:18;;;;;;;2.58;1.48;;;19.80;66.00;;;;;;5005192;27;92631;-82
2023/01/04 06:05:48;;;;;;;1.65;1.15;;;19.90;66.10;;;;;;4996486;27;92671;-85
2023/01/04 06:08:14;;;;;;;1.52;1.20;;;19.90;66.00;;;;;;5004905;28;93620;-84
2023/01/04 06:10:40;;;;;;;1.75;1.10;;;19.80;65.80;;;;;;5004573;27;93810;-83
2023/01/04 06:13:05;;;;;;;1.70;1.05;;;19.80;65.90;;;;;;5004840;27;92513;-84
2023/01/04 06:15:31;;;;;;;2.75;1.52;;;19.80;66.10;;;;;;5004868;27;92608;-85
2023/01/04 06:17:56;;;;;;;2.35;1.40;;;19.80;65.90;;;;;;5004572;27;93539;-84
2023/01/04 06:20:22;;;;;;;1.45;1.08;;;19.80;66.00;;;;;;5004728;28;92272;-84
2023/01/04 06:22:48;;;;;;;2.67;1.30;;;19.80;65.90;;;;;;5003738;27;92426;-85
2023/01/04 06:25:13;;;;;;;1.40;1.20;;;19.80;66.00;;;;;;5005089;27;91947;-84
2023/01/04 06:27:39;;;;;;;3.13;1.40;;;19.80;66.00;;;;;;5004285;27;94726;-84
2023/01/04 06:30:05;;;;;;;2.78;1.50;;;19.80;66.00;;;;;;5004558;27;94308;-84
2023/01/04 06:32:31;;;;;;;1.98;1.35;;;19.80;66.10;;;;;;5008170;27;93254;-85
2023/01/04 06:34:56;;;;;;;1.92;1.35;;;19.80;66.20;;;;;;5004459;28;92546;-84
2023/01/04 06:37:22;;;;;;;1.80;1.33;;;19.80;66.30;;;;;;5003177;27;93254;-85
2023/01/04 06:39:48;;;;;;;1.85;1.33;;;19.70;66.20;;;;;;5003774;27;92783;-85
2023/01/04 06:44:57;;;;;;;2.47;1.10;;;19.80;66.30;;;;;;5004046;27;92831;-84
2023/01/04 06:47:23;;;;;;;1.52;1.10;;;19.80;66.30;;;;;;5005387;28;93453;-83
2023/01/04 06:49:48;;;;;;;2.25;1.58;;;19.70;66.10;;;;;;5004104;27;93236;-85
2023/01/04 06:52:14;;;;;;;1.25;1.08;;;19.70;66.10;;;;;;5003813;27;92983;-83
2023/01/04 06:54:39;;;;;;;1.98;1.30;;;19.70;66.10;;;;;;5004196;27;92276;-85
2023/01/04 06:57:05;;;;;;;2.10;1.42;;;19.70;66.20;;;;;;5002776;27;94045;-84
2023/01/04 06:59:31;;;;;;;1.48;1.10;;;19.70;66.20;;;;;;5003361;27;93581;-85
2023/01/04 07:01:56;;;;;;;2.50;1.33;;;19.70;66.30;;;;;;5005502;28;92666;-85
2023/01/04 07:04:22;;;;;;;2.75;1.40;;;19.70;66.30;;;;;;5004017;27;92612;-84
2023/01/04 07:06:47;;;;;;;2.03;1.17;;;19.70;66.40;;;;;;5003424;27;92602;-84
2023/01/04 07:09:13;;;;;;;1.63;1.15;;;19.70;66.20;;;;;;5003994;27;94218;-82
2023/01/04 07:11:38;;;;;;;1.38;1.00;;;19.80;66.20;;;;;;5002927;27;92434;-82
2023/01/04 07:14:04;;;;;;;3.65;1.20;;;19.80;63.40;;;;;;5004849;28;91667;-85
2023/01/04 07:16:29;;;;;;;1.80;0.98;;;19.90;65.00;;;;;;5005407;27;92474;-82
2023/01/04 07:18:55;;;;;;;3.70;1.55;;;20.00;65.30;;;;;;5003608;27;93177;-83
2023/01/04 07:21:21;;;;;;;2.60;1.30;;;20.00;65.00;;;;;;5001398;27;93751;-82
2023/01/04 07:23:46;;;;;;;1.63;1.10;;;20.10;64.80;;;;;;5002448;27;92627;-85
2023/01/04 07:26:12;;;;;;;1.55;1.20;;;20.20;64.60;;;;;;5004993;28;92633;-83
2023/01/04 07:31:22;;;;;;;4.70;1.50;;;20.40;64.00;;;;;;5003444;27;92059;-83
2023/01/04 07:33:49;;;;;;;1.15;0.85;;;20.60;63.60;;;;;;5014533;27;91884;-85
2023/01/04 07:36:15;;;;;;;7.05;1.23;;;20.70;63.70;;;;;;5001713;27;93763;-84
2023/01/04 07:38:42;;;;;;;2.00;1.20;;;20.80;63.30;;;;;;5003262;27;93240;-83
2023/01/04 07:41:08;;;;;;;1.52;1.10;;;20.90;63.60;;;;;;5004787;28;92411;-84
2023/01/04 07:43:34;;;;;;;2.00;1.20;;;21.00;63.40;;;;;;5002698;27;92526;-85
2023/01/04 07:45:59;;;;;;;2.00;1.17;;;21.00;63.80;;;;;;5003897;27;95914;-84
2023/01/04 07:48:27;;;;;;;3.25;1.20;;;21.00;63.50;;;;;;5004794;27;93710;-82
2023/01/04 07:50:53;;;;;;;1.70;1.17;;;20.90;63.90;;;;;;5004147;27;92425;-83
2023/01/04 07:53:18;;;;;;;1.98;1.30;;;20.80;64.10;;;;;;5005447;28;92468;-85
2023/01/04 07:55:44;;;;;;;3.25;1.30;;;20.80;64.50;;;;;;5004250;28;99355;-84
2023/01/04 07:58:09;;;;;;;1.48;0.90;;;20.70;64.80;;;;;;5003609;27;92807;-84
2023/01/04 08:00:35;;;;;;;2.33;1.20;;;20.60;65.20;;;;;;5004339;27;92564;-83
2023/01/04 08:03:01;;;;;;;1.90;1.10;;;20.50;65.40;;;;;;5003536;27;91679;-85
2023/01/04 08:05:26;;;;;;;3.42;1.45;;;20.50;65.30;;;;;;5002861;27;95437;-83
2023/01/04 08:07:54;;;;;;;2.53;1.20;;;20.50;65.70;;;;;;5004444;28;92578;-81
2023/01/04 08:10:20;;;;;;;1.92;0.95;;;20.50;65.90;;;;;;5002903;27;94119;-84
2023/01/04 08:12:45;;;;;;;2.00;1.10;;;20.40;66.00;;;;;;5003277;27;92138;-82
2023/01/04 08:15:11;;;;;;;2.78;1.35;;;20.40;66.10;;;;;;5003419;27;93449;-81
2023/01/04 08:17:36;;;;;;;2.88;1.38;;;20.40;66.10;;;;;;5000232;27;94903;-83
2023/01/04 08:20:02;;;;;;;1.88;1.20;;;20.60;65.20;;;;;;5003721;28;93008;-80
2023/01/04 08:22:28;;;;;;;3.08;0.98;;;20.60;65.40;;;;;;5000828;28;92811;-85
2023/01/04 08:24:54;;;;;;;2.25;0.90;;;20.50;64.20;;;;;;5002305;28;93514;-84
2023/01/04 08:27:19;;;;;;;3.15;0.85;;;20.50;63.90;;;;;;5001881;27;94564;-83
2023/01/04 08:29:48;;;;;;;2.22;1.05;;;20.50;65.70;;;;;;5002698;27;91988;-84
2023/01/04 08:32:14;;;;;;;2.87;1.30;;;20.40;66.10;;;;;;4980584;28;92585;-82
2023/01/04 08:34:39;;;;;;;18.58;3.92;;;20.40;66.10;;;;;;4978091;28;94445;-85
2023/01/04 08:37:05;;;;;;;25.48;4.75;;;20.60;65.00;;;;;;4978773;28;93909;-84
2023/01/04 08:39:34;;;;;;;22.25;4.28;;;20.60;64.80;;;;;;4947682;28;93021;-84
2023/01/04 08:42:00;;;;;;;;;;;20.60;65.10;;;;;;4975805;28;92159;-83
2023/01/04 08:44:26;;;;;;;24.10;4.30;;;20.50;65.40;;;;;;4961476;28;93592;-85
2023/01/04 08:46:52;;;;;;;15.07;3.72;;;20.50;65.30;;;;;;4961290;28;92877;-83
2023/01/04 08:49:19;;;;;;;19.92;3.97;;;20.50;65.70;;;;;;4958388;28;92718;-82
2023/01/04 08:51:45;;;;;;;28.10;4.15;;;20.50;66.10;;;;;;4958979;28;91734;-87
2023/01/04 08:54:11;;;;;;;21.48;4.00;;;20.50;65.80;;;;;;4960819;28;93826;-84
2023/01/04 08:56:37;;;;;;;20.02;4.20;;;20.50;65.60;;;;;;4948828;28;92945;-85
2023/01/04 08:59:03;;;;;;;20.63;4.65;;;20.50;65.90;;;;;;4959472;28;93222;-84
2023/01/04 09:01:31;;;;;;;23.63;4.85;;;20.40;66.00;;;;;;4977035;28;92519;-85
2023/01/04 09:03:57;;;;;;;19.27;4.30;;;20.50;66.00;;;;;;4978476;28;92639;-83
2023/01/04 09:06:22;;;;;;;23.38;4.85;;;20.50;66.00;;;;;;4985462;28;92814;-85
2023/01/04 09:08:48;;;;;;;26.77;5.53;;;20.60;65.80;;;;;;4984721;28;92424;-84
2023/01/04 09:11:16;;;;;;;21.63;4.65;;;20.50;65.40;;;;;;4985651;28;92386;-83
2023/01/04 09:13:42;;;;;;;19.80;5.13;;;20.50;66.10;;;;;;4985357;28;93525;-84
2023/01/04 09:16:17;;;;;;;21.92;5.32;;;20.50;66.20;;;;;;4985087;28;92812;-83
2023/01/04 09:18:43;;;;;;;19.42;4.80;;;20.50;66.10;;;;;;4983726;28;92654;-83
2023/01/04 09:21:14;;;;;;;19.63;4.82;;;20.50;66.50;;;;;;4991051;28;94713;-85
2023/01/04 09:23:41;;;;;;;22.08;5.68;;;20.40;66.20;;;;;;5004483;27;94010;-83
2023/01/04 09:26:09;;;;;;;24.90;6.00;;;20.40;66.50;;;;;;5005704;28;94964;-83
2023/01/04 09:28:35;;;;;;;23.77;5.60;;;20.40;66.60;;;;;;4996501;28;92931;-83
2023/01/04 09:31:05;;;;;;;17.95;5.05;;;20.40;66.80;;;;;;5006327;27;92744;-84
2023/01/04 09:33:30;;;;;;;;;;;20.40;66.80;;;;;;5004979;27;94776;-84
2023/01/04 09:36:01;;;;;;;20.70;5.13;;;20.40;66.80;;;;;;5020342;27;92445;-84
2023/01/04 09:38:26;;;;;;;18.23;5.82;;;20.40;66.20;;;;;;4992954;27;92277;-85
2023/01/04 09:41:06;;;;;;;18.77;4.85;;;20.40;66.40;;;;;;5004644;28;91986;-83
2023/01/04 09:43:50;;;;;;;15.18;4.93;;;20.40;66.50;;;;;;5004582;27;93372;-83
2023/01/04 09:46:53;;;;;;;21.13;5.32;;;20.50;66.50;;;;;;5019428;27;94185;-84
2023/01/04 09:49:29;;;;;;;19.52;5.10;;;20.50;65.70;;;;;;5004274;27;93798;-84
2023/01/04 09:52:13;;;;;;;17.92;5.05;;;20.60;65.70;;;;;;5005348;27;92510;-83
2023/01/04 09:54:53;;;;;;;23.73;5.25;;;20.50;65.60;;;;;;5004678;27;93160;-83
2023/01/04 09:57:22;;;;;;;;;;;20.50;66.10;;;;;;5005852;27;92501;-84
2023/01/04 09:59:50;;;;;;;;;;;20.40;66.20;;;;;;5001820;27;92274;-83
2023/01/04 10:02:24;;;;;;;16.40;4.55;;;20.40;66.50;;;;;;5033072;27;92754;-83
2023/01/04 10:04:50;;;;;;;20.67;5.72;;;20.50;66.10;;;;;;5004439;28;97565;-83
2023/01/04 10:07:27;;;;;;;21.42;5.60;;;20.50;66.40;;;;;;5004709;27;92957;-82
2023/01/04 10:09:53;;;;;;;19.98;5.38;;;20.50;66.00;;;;;;5004855;27;92388;-85
2023/01/04 10:12:38;;;;;;;16.80;5.03;;;20.50;66.10;;;;;;5003524;27;92564;-83
2023/01/04 10:15:15;;;;;;;18.98;5.38;;;20.40;66.20;;;;;;5004313;27;94664;-82
2023/01/04 10:18:15;;;;;;;19.90;5.03;;;20.40;66.20;;;;;;5005079;27;93984;-84
2023/01/04 10:21:15;;;;;;;14.73;4.97;;;20.40;66.50;;;;;;5005332;27;93210;-82
2023/01/04 10:24:03;;;;;;;17.92;6.07;;;20.40;66.50;;;;;;5005095;27;92232;-82
2023/01/04 10:26:50;;;;;;;16.73;5.13;;;20.50;66.20;;;;;;5005508;27;93095;-83
2023/01/04 10:29:28;;;;;;;20.95;5.43;;;20.60;66.00;;;;;;5005495;28;92746;-83
2023/01/04 10:31:57;;;;;;;21.10;5.67;;;20.70;65.90;;;;;;5004226;28;92534;-84
2023/01/04 10:34:41;;;;;;;15.68;5.13;;;20.80;65.60;;;;;;5004575;27;91192;-84
2023/01/04 10:37:32;;;;;;;18.10;5.22;;;20.80;65.20;;;;;;5003701;27;93705;-84
2023/01/04 10:39:58;;;;;;;18.25;5.63;;;20.90;65.20;;;;;;5003444;27;93083;-83
2023/01/04 10:42:35;;;;;;;16.70;5.10;;;21.00;65.10;;;;;;5003666;27;93424;-84
2023/01/04 10:45:19;;;;;;;18.00;5.45;;;21.00;65.10;;;;;;5005228;27;92525;-85
2023/01/04 10:47:53;;;;;;;17.70;5.10;;;21.00;65.30;;;;;;5004619;27;93972;-86
2023/01/04 10:50:26;;;;;;;16.48;5.47;;;21.00;65.20;;;;;;5004122;28;94484;-84
2023/01/04 10:52:57;;;;;;;17.52;5.53;;;21.00;65.20;;;;;;5004295;28;92623;-82
2023/01/04 10:55:37;;;;;;;13.35;5.00;;;21.00;65.10;;;;;;5003695;27;92281;-84
2023/01/04 10:58:11;;;;;;;18.50;6.38;;;21.00;65.00;;;;;;5003690;27;93517;-81
2023/01/04 11:00:53;;;;;;;17.35;5.10;;;21.00;65.20;;;;;;5003860;27;94039;-83
2023/01/04 11:03:19;;;;;;;16.33;4.65;;;20.90;65.30;;;;;;5004678;27;92021;-83
2023/01/04 11:05:53;;;;;;;11.55;4.18;;;20.90;65.70;;;;;;5003793;27;92342;-85
2023/01/04 11:08:22;;;;;;;15.93;4.63;;;20.80;65.40;;;;;;5004805;28;94202;-83
2023/01/04 11:10:56;;;;;;;12.80;4.80;;;20.80;65.50;;;;;;5005398;27;93870;-85
2023/01/04 11:13:22;;;;;;;11.48;4.40;;;20.80;65.50;;;;;;5004201;27;92264;-86
2023/01/04 11:15:49;;;;;;;14.30;4.97;;;20.80;65.60;;;;;;5004186;27;92076;-83
2023/01/04 11:18:15;;;;;;;14.13;4.93;;;20.80;65.80;;;;;;5003148;27;93134;-84
2023/01/04 11:20:42;;;;;;;13.45;4.45;;;20.80;65.90;;;;;;5002787;27;93242;-83
2023/01/04 11:23:18;;;;;;;13.55;4.82;;;20.80;65.80;;;;;;5003641;28;92584;-86
2023/01/04 11:25:57;;;;;;;10.40;4.18;;;20.80;65.80;;;;;;5003760;27;91367;-82
2023/01/04 11:28:38;;;;;;;14.13;4.88;;;20.90;66.00;;;;;;5003348;27;92646;-85
2023/01/04 11:31:20;;;;;;;11.80;3.90;;;20.90;65.90;;;;;;5002964;27;92782;-85
2023/01/04 11:33:53;;;;;;;11.15;4.22;;;20.90;66.00;;;;;;5006740;27;92897;-84
2023/01/04 11:36:30;;;;;;;13.48;4.70;;;20.80;66.10;;;;;;5003047;27;92792;-83
2023/01/04 11:38:56;;;;;;;12.32;4.53;;;20.90;66.10;;;;;;5003052;27;93395;-84
2023/01/04 11:41:23;;;;;;;14.32;4.45;;;21.00;65.70;;;;;;4999824;28;93321;-84
2023/01/04 11:44:03;;;;;;;13.90;4.40;;;21.00;65.80;;;;;;5002730;27;91976;-84
2023/01/04 11:46:31;;;;;;;11.68;4.22;;;21.00;66.60;;;;;;5017583;27;92698;-82
2023/01/04 11:48:56;;;;;;;12.07;4.63;;;21.00;65.90;;;;;;5003101;27;93060;-83
2023/01/04 11:51:25;;;;;;;15.60;4.50;;;20.90;65.90;;;;;;5002825;27;93767;-84
2023/01/04 11:54:04;;;;;;;9.90;4.00;;;20.90;66.30;;;;;;5002659;27;92560;-85
2023/01/04 11:56:35;;;;;;;13.65;4.18;;;21.00;65.70;;;;;;5003457;27;92699;-84
2023/01/04 11:59:13;;;;;;;13.77;4.57;;;20.90;65.70;;;;;;5002730;28;94982;-85
2023/01/04 12:01:51;;;;;;;15.40;4.43;;;21.00;65.80;;;;;;5002396;27;93901;-85
2023/01/04 12:04:23;;;;;;;12.57;4.20;;;21.00;65.10;;;;;;5002574;27;92768;-85
2023/01/04 12:06:54;;;;;;;13.23;4.30;;;21.00;65.60;;;;;;5002875;27;92609;-84
2023/01/04 12:09:20;;;;;;;16.98;4.57;;;21.00;65.20;;;;;;5002164;27;93182;-84
2023/01/04 12:11:52;;;;;;;11.90;4.55;;;21.00;65.00;;;;;;5002431;27;94937;-84
2023/01/04 12:14:26;;;;;;;9.18;3.88;;;21.00;64.80;;;;;;5003139;28;92021;-83
2023/01/04 12:17:03;;;;;;;10.27;4.28;;;21.00;65.40;;;;;;5002374;28;91334;-84
2023/01/04 12:19:30;;;;;;;11.60;3.78;;;20.90;65.40;;;;;;4999901;27;93256;-83
2023/01/04 12:21:59;;;;;;;11.18;3.75;;;21.00;65.20;;;;;;5000840;27;92941;-84
2023/01/04 12:24:27;;;;;;;13.07;3.88;;;21.00;65.10;;;;;;5001250;27;94341;-84
2023/01/04 12:26:53;;;;;;;10.40;4.28;;;21.00;65.30;;;;;;5001865;27;92413;-83
2023/01/04 12:29:22;;;;;;;12.27;3.58;;;21.00;65.40;;;;;;5001964;28;94075;-84
2023/01/04 12:31:53;;;;;;;10.32;4.05;;;21.00;65.30;;;;;;5002209;27;92471;-85
2023/01/04 12:34:21;;;;;;;7.05;3.35;;;21.00;65.50;;;;;;5001465;27;92568;-84
2023/01/04 12:36:50;;;;;;;9.85;3.97;;;21.00;65.40;;;;;;5001402;27;92112;-83
2023/01/04 12:39:15;;;;;;;10.05;3.42;;;21.00;65.60;;;;;;5001898;27;93664;-84
2023/01/04 12:41:59;;;;;;;9.45;3.50;;;21.00;65.50;;;;;;5002175;27;93017;-82
2023/01/04 12:44:43;;;;;;;11.60;4.15;;;21.00;65.50;;;;;;5002472;28;92521;-83
2023/01/04 12:50:17;;;;;;;8.52;3.65;;;21.00;65.10;;;;;;4981883;28;97696;-83
2023/01/04 12:52:44;;;;;;;11.93;3.67;;;21.00;65.00;;;;;;5001774;27;93874;-84
2023/01/04 12:55:31;;;;;;;10.60;4.15;;;21.00;65.10;;;;;;5002852;27;92032;-84
2023/01/04 12:57:59;;;;;;;9.73;3.88;;;20.90;65.50;;;;;;5001808;27;92790;-84
2023/01/04 13:01:03;;;;;;;11.20;3.88;;;20.90;65.80;;;;;;5003973;27;93328;-84
2023/01/04 13:03:29;;;;;;;9.80;3.70;;;21.00;65.70;;;;;;4959862;28;93220;-83
2023/01/04 13:05:59;;;;;;;7.57;3.30;;;21.00;65.50;;;;;;4959501;28;92065;-85
2023/01/04 13:08:26;;;;;;;7.50;3.08;;;20.90;65.40;;;;;;4960874;28;92022;-81
2023/01/04 13:10:55;;;;;;;10.32;3.28;;;21.00;65.20;;;;;;4959791;28;94081;-84
2023/01/04 13:13:21;;;;;;;;;;;21.00;65.40;;;;;;4960382;28;92622;-84
2023/01/04 13:16:12;;;;;;;9.15;3.38;;;21.00;65.60;;;;;;4940550;28;93793;-83
2023/01/04 13:18:42;;;;;;;7.95;3.30;;;21.00;65.40;;;;;;4939840;28;92575;-84
2023/01/04 13:21:22;;;;;;;9.43;3.78;;;21.00;65.40;;;;;;4938691;28;94312;-84
2023/01/04 13:23:57;;;;;;;7.43;2.63;;;20.90;65.40;;;;;;4938987;28;92708;-82
2023/01/04 13:26:31;;;;;;;8.50;2.95;;;20.90;65.50;;;;;;4940320;28;92605;-84
2023/01/04 13:29:23;;;;;;;8.55;3.20;;;20.90;65.70;;;;;;4959404;28;92871;-82
2023/01/04 13:31:57;;;;;;;8.25;3.63;;;21.00;65.80;;;;;;4956068;28;93559;-84
2023/01/04 13:34:42;;;;;;;10.65;3.67;;;21.00;65.60;;;;;;4981489;28;91792;-82
2023/01/04 13:37:11;;;;;;;9.35;2.88;;;21.00;65.60;;;;;;5001299;27;92850;-84
2023/01/04 13:39:48;;;;;;;9.30;3.37;;;20.90;65.50;;;;;;5001702;27;92445;-83
2023/01/04 13:42:30;;;;;;;7.88;4.03;;;21.00;65.80;;;;;;4999309;27;94272;-84
2023/01/04 13:45:39;;;;;;;10.77;3.55;;;21.00;65.80;;;;;;5000588;27;94356;-84
2023/01/04 13:48:11;;;;;;;10.70;3.58;;;20.90;65.80;;;;;;5005433;27;91940;-83
2023/01/04 13:50:48;;;;;;;12.60;3.72;;;20.90;65.70;;;;;;5010561;27;92351;-83
2023/01/04 13:53:20;;;;;;;8.15;3.08;;;20.90;65.70;;;;;;5004248;28;93326;-84
2023/01/04 13:55:50;;;;;;;9.20;3.00;;;21.00;65.90;;;;;;5004231;28;96393;-84